sensor_id;sensor_type;location;lat;lon;timestamp;temperature;humidity
67005;HTU21D;53920;51.094;5.902;2023-08-30T00:00:45;15.26;76.34
67005;HTU21D;53920;51.094;5.902;2023-08-30T00:03:11;15.37;76.21
67005;HTU21D;53920;51.094;5.902;2023-08-30T00:05:42;15.46;75.86
67005;HTU21D;53920;51.094;5.902;2023-08-30T00:08:09;15.52;75.80
67005;HTU21D;53920;51.094;5.902;2023-08-30T00:10:35;15.52;75.86
67005;HTU21D;53920;51.094;5.902;2023-08-30T00:13:03;15.49;75.87
67005;HTU21D;53920;51.094;5.902;2023-08-30T00:15:29;15.42;76.01
67005;HTU21D;53920;51.094;5.902;2023-08-30T00:17:55;15.40;76.07
67005;HTU21D;53920;51.094;5.902;2023-08-30T00:20:21;15.32;76.16
67005;HTU21D;53920;51.094;5.902;2023-08-30T00:22:48;15.23;76.42
67005;HTU21D;53920;51.094;5.902;2023-08-30T00:25:18;15.14;76.69
67005;HTU21D;53920;51.094;5.902;2023-08-30T00:27:43;15.01;77.00
67005;HTU21D;53920;51.094;5.902;2023-08-30T00:30:11;14.99;77.25
67005;HTU21D;53920;51.094;5.902;2023-08-30T00:32:37;15.03;77.31
67005;HTU21D;53920;51.094;5.902;2023-08-30T00:35:03;15.08;77.14
67005;HTU21D;53920;51.094;5.902;2023-08-30T00:37:29;15.14;76.96
67005;HTU21D;53920;51.094;5.902;2023-08-30T00:39:56;15.22;76.77
67005;HTU21D;53920;51.094;5.902;2023-08-30T00:42:21;15.24;76.66
67005;HTU21D;53920;51.094;5.902;2023-08-30T00:44:48;15.26;76.60
67005;HTU21D;53920;51.094;5.902;2023-08-30T00:47:15;15.23;76.66
67005;HTU21D;53920;51.094;5.902;2023-08-30T00:49:41;15.26;76.62
67005;HTU21D;53920;51.094;5.902;2023-08-30T00:52:09;15.28;76.53
67005;HTU21D;53920;51.094;5.902;2023-08-30T00:54:37;15.30;76.46
67005;HTU21D;53920;51.094;5.902;2023-08-30T00:57:04;15.34;76.35
67005;HTU21D;53920;51.094;5.902;2023-08-30T00:59:33;15.41;76.17
67005;HTU21D;53920;51.094;5.902;2023-08-30T01:02:00;15.52;75.90
67005;HTU21D;53920;51.094;5.902;2023-08-30T01:04:27;15.61;75.67
67005;HTU21D;53920;51.094;5.902;2023-08-30T01:06:53;15.72;75.44
67005;HTU21D;53920;51.094;5.902;2023-08-30T01:09:19;15.82;75.25
67005;HTU21D;53920;51.094;5.902;2023-08-30T01:12:00;15.90;74.88
67005;HTU21D;53920;51.094;5.902;2023-08-30T01:14:40;15.99;74.61
67005;HTU21D;53920;51.094;5.902;2023-08-30T01:17:10;16.04;74.35
67005;HTU21D;53920;51.094;5.902;2023-08-30T01:19:59;16.02;74.24
67005;HTU21D;53920;51.094;5.902;2023-08-30T01:27:42;15.89;74.39
67005;HTU21D;53920;51.094;5.902;2023-08-30T01:30:10;15.81;74.60
67005;HTU21D;53920;51.094;5.902;2023-08-30T01:32:38;15.76;74.75
67005;HTU21D;53920;51.094;5.902;2023-08-30T01:35:07;15.71;74.91
67005;HTU21D;53920;51.094;5.902;2023-08-30T01:37:35;15.72;74.96
67005;HTU21D;53920;51.094;5.902;2023-08-30T01:40:03;15.75;75.00
67005;HTU21D;53920;51.094;5.902;2023-08-30T01:42:32;15.78;75.00
67005;HTU21D;53920;51.094;5.902;2023-08-30T01:45:01;15.85;74.76
67005;HTU21D;53920;51.094;5.902;2023-08-30T01:47:30;15.88;74.83
67005;HTU21D;53920;51.094;5.902;2023-08-30T01:49:57;15.97;74.63
67005;HTU21D;53920;51.094;5.902;2023-08-30T01:52:24;16.00;74.43
67005;HTU21D;53920;51.094;5.902;2023-08-30T01:54:52;16.01;74.30
67005;HTU21D;53920;51.094;5.902;2023-08-30T01:57:21;15.99;74.28
67005;HTU21D;53920;51.094;5.902;2023-08-30T01:59:47;15.98;74.31
67005;HTU21D;53920;51.094;5.902;2023-08-30T02:02:13;16.02;74.25
67005;HTU21D;53920;51.094;5.902;2023-08-30T02:04:39;16.05;74.13
67005;HTU21D;53920;51.094;5.902;2023-08-30T02:07:14;16.06;74.09
67005;HTU21D;53920;51.094;5.902;2023-08-30T02:09:50;16.08;74.15
67005;HTU21D;53920;51.094;5.902;2023-08-30T02:12:22;16.12;74.03
67005;HTU21D;53920;51.094;5.902;2023-08-30T02:14:53;16.11;73.95
67005;HTU21D;53920;51.094;5.902;2023-08-30T02:17:20;16.10;73.93
67005;HTU21D;53920;51.094;5.902;2023-08-30T02:19:47;16.10;73.95
67005;HTU21D;53920;51.094;5.902;2023-08-30T02:22:17;16.07;74.02
67005;HTU21D;53920;51.094;5.902;2023-08-30T02:24:44;16.12;73.86
67005;HTU21D;53920;51.094;5.902;2023-08-30T02:27:10;16.08;74.06
67005;HTU21D;53920;51.094;5.902;2023-08-30T02:29:36;16.08;74.10
67005;HTU21D;53920;51.094;5.902;2023-08-30T02:32:03;16.13;74.41
67005;HTU21D;53920;51.094;5.902;2023-08-30T02:34:29;16.16;74.61
67005;HTU21D;53920;51.094;5.902;2023-08-30T02:36:55;16.17;74.71
67005;HTU21D;53920;51.094;5.902;2023-08-30T02:39:24;16.24;74.47
67005;HTU21D;53920;51.094;5.902;2023-08-30T02:41:49;16.28;74.47
67005;HTU21D;53920;51.094;5.902;2023-08-30T02:44:15;16.32;74.25
67005;HTU21D;53920;51.094;5.902;2023-08-30T02:46:41;16.36;74.05
67005;HTU21D;53920;51.094;5.902;2023-08-30T02:49:07;16.42;73.65
67005;HTU21D;53920;51.094;5.902;2023-08-30T02:51:35;16.48;73.38
67005;HTU21D;53920;51.094;5.902;2023-08-30T02:54:00;16.54;73.09
67005;HTU21D;53920;51.094;5.902;2023-08-30T02:56:27;16.57;73.06
67005;HTU21D;53920;51.094;5.902;2023-08-30T02:58:53;16.60;73.12
67005;HTU21D;53920;51.094;5.902;2023-08-30T03:01:19;16.61;73.23
67005;HTU21D;53920;51.094;5.902;2023-08-30T03:03:46;16.61;73.03
67005;HTU21D;53920;51.094;5.902;2023-08-30T03:06:12;16.61;73.00
67005;HTU21D;53920;51.094;5.902;2023-08-30T03:08:40;16.61;72.95
67005;HTU21D;53920;51.094;5.902;2023-08-30T03:11:11;16.60;73.06
67005;HTU21D;53920;51.094;5.902;2023-08-30T03:13:41;16.59;73.12
67005;HTU21D;53920;51.094;5.902;2023-08-30T03:16:11;16.57;73.32
67005;HTU21D;53920;51.094;5.902;2023-08-30T03:18:39;16.56;73.30
67005;HTU21D;53920;51.094;5.902;2023-08-30T03:21:06;16.56;73.54
67005;HTU21D;53920;51.094;5.902;2023-08-30T03:23:33;16.58;73.51
67005;HTU21D;53920;51.094;5.902;2023-08-30T03:25:59;16.57;73.45
67005;HTU21D;53920;51.094;5.902;2023-08-30T03:28:25;16.54;73.62
67005;HTU21D;53920;51.094;5.902;2023-08-30T03:30:53;16.49;73.77
67005;HTU21D;53920;51.094;5.902;2023-08-30T03:33:18;16.46;73.96
67005;HTU21D;53920;51.094;5.902;2023-08-30T03:35:44;16.43;74.07
67005;HTU21D;53920;51.094;5.902;2023-08-30T03:38:10;16.41;74.15
67005;HTU21D;53920;51.094;5.902;2023-08-30T03:40:36;16.41;74.15
67005;HTU21D;53920;51.094;5.902;2023-08-30T03:43:03;16.44;74.12
67005;HTU21D;53920;51.094;5.902;2023-08-30T03:45:29;16.40;74.15
67005;HTU21D;53920;51.094;5.902;2023-08-30T03:47:55;16.40;74.13
67005;HTU21D;53920;51.094;5.902;2023-08-30T03:50:20;16.43;74.24
67005;HTU21D;53920;51.094;5.902;2023-08-30T03:52:46;16.46;74.18
67005;HTU21D;53920;51.094;5.902;2023-08-30T03:55:12;16.48;74.07
67005;HTU21D;53920;51.094;5.902;2023-08-30T03:57:38;16.48;74.05
67005;HTU21D;53920;51.094;5.902;2023-08-30T04:00:04;16.49;74.00
67005;HTU21D;53920;51.094;5.902;2023-08-30T04:02:40;16.47;74.09
67005;HTU21D;53920;51.094;5.902;2023-08-30T04:05:07;16.47;74.13
67005;HTU21D;53920;51.094;5.902;2023-08-30T04:07:37;16.49;74.09
67005;HTU21D;53920;51.094;5.902;2023-08-30T04:10:03;16.47;74.06
67005;HTU21D;53920;51.094;5.902;2023-08-30T04:12:33;16.43;74.16
67005;HTU21D;53920;51.094;5.902;2023-08-30T04:15:01;16.39;74.18
67005;HTU21D;53920;51.094;5.902;2023-08-30T04:17:27;16.31;74.30
67005;HTU21D;53920;51.094;5.902;2023-08-30T04:19:54;16.28;74.47
67005;HTU21D;53920;51.094;5.902;2023-08-30T04:22:20;16.27;74.55
67005;HTU21D;53920;51.094;5.902;2023-08-30T04:24:47;16.33;74.30
67005;HTU21D;53920;51.094;5.902;2023-08-30T04:27:13;16.17;74.66
67005;HTU21D;53920;51.094;5.902;2023-08-30T04:29:39;16.10;74.92
67005;HTU21D;53920;51.094;5.902;2023-08-30T04:32:05;16.05;75.12
67005;HTU21D;53920;51.094;5.902;2023-08-30T04:34:32;16.12;75.10
67005;HTU21D;53920;51.094;5.902;2023-08-30T04:36:58;16.17;75.04
67005;HTU21D;53920;51.094;5.902;2023-08-30T04:39:24;16.16;75.01
67005;HTU21D;53920;51.094;5.902;2023-08-30T04:41:51;16.16;75.08
67005;HTU21D;53920;51.094;5.902;2023-08-30T04:44:18;16.18;75.03
67005;HTU21D;53920;51.094;5.902;2023-08-30T04:46:45;16.14;75.11
67005;HTU21D;53920;51.094;5.902;2023-08-30T04:49:12;16.13;75.12
67005;HTU21D;53920;51.094;5.902;2023-08-30T04:51:38;16.14;75.04
67005;HTU21D;53920;51.094;5.902;2023-08-30T04:54:05;16.14;75.01
67005;HTU21D;53920;51.094;5.902;2023-08-30T04:56:31;16.15;75.00
67005;HTU21D;53920;51.094;5.902;2023-08-30T04:58:57;16.17;74.92
67005;HTU21D;53920;51.094;5.902;2023-08-30T05:01:23;16.21;74.86
67005;HTU21D;53920;51.094;5.902;2023-08-30T05:03:52;16.20;74.76
67005;HTU21D;53920;51.094;5.902;2023-08-30T05:06:19;16.17;74.73
67005;HTU21D;53920;51.094;5.902;2023-08-30T05:08:45;16.18;74.76
67005;HTU21D;53920;51.094;5.902;2023-08-30T05:11:11;16.22;74.67
67005;HTU21D;53920;51.094;5.902;2023-08-30T05:13:37;16.26;74.52
67005;HTU21D;53920;51.094;5.902;2023-08-30T05:16:03;16.26;74.36
67005;HTU21D;53920;51.094;5.902;2023-08-30T05:18:29;16.29;74.34
67005;HTU21D;53920;51.094;5.902;2023-08-30T05:20:55;16.33;74.31
67005;HTU21D;53920;51.094;5.902;2023-08-30T05:23:21;16.40;74.24
67005;HTU21D;53920;51.094;5.902;2023-08-30T05:25:47;16.47;73.99
67005;HTU21D;53920;51.094;5.902;2023-08-30T05:28:14;16.46;73.90
67005;HTU21D;53920;51.094;5.902;2023-08-30T05:30:42;16.47;73.85
67005;HTU21D;53920;51.094;5.902;2023-08-30T05:33:15;16.52;73.58
67005;HTU21D;53920;51.094;5.902;2023-08-30T05:36:04;16.54;73.23
67005;HTU21D;53920;51.094;5.902;2023-08-30T05:38:50;16.62;73.08
67005;HTU21D;53920;51.094;5.902;2023-08-30T05:41:31;16.65;72.92
67005;HTU21D;53920;51.094;5.902;2023-08-30T05:43:58;16.69;72.70
67005;HTU21D;53920;51.094;5.902;2023-08-30T05:46:24;16.69;72.58
67005;HTU21D;53920;51.094;5.902;2023-08-30T05:48:51;16.79;72.53
67005;HTU21D;53920;51.094;5.902;2023-08-30T05:51:17;16.77;72.51
67005;HTU21D;53920;51.094;5.902;2023-08-30T05:53:43;16.75;72.43
67005;HTU21D;53920;51.094;5.902;2023-08-30T05:56:08;16.69;72.47
67005;HTU21D;53920;51.094;5.902;2023-08-30T05:58:34;16.63;72.45
67005;HTU21D;53920;51.094;5.902;2023-08-30T06:01:01;16.62;72.39
67005;HTU21D;53920;51.094;5.902;2023-08-30T06:03:28;16.63;72.16
67005;HTU21D;53920;51.094;5.902;2023-08-30T06:05:54;16.58;72.17
67005;HTU21D;53920;51.094;5.902;2023-08-30T06:08:21;16.56;72.13
67005;HTU21D;53920;51.094;5.902;2023-08-30T06:10:47;16.59;71.91
67005;HTU21D;53920;51.094;5.902;2023-08-30T06:13:13;16.70;71.85
67005;HTU21D;53920;51.094;5.902;2023-08-30T06:15:38;16.82;71.48
67005;HTU21D;53920;51.094;5.902;2023-08-30T06:18:05;16.99;70.88
67005;HTU21D;53920;51.094;5.902;2023-08-30T06:20:30;17.15;70.58
67005;HTU21D;53920;51.094;5.902;2023-08-30T06:22:58;17.31;69.93
67005;HTU21D;53920;51.094;5.902;2023-08-30T06:25:24;17.44;69.24
67005;HTU21D;53920;51.094;5.902;2023-08-30T06:27:58;17.38;69.23
67005;HTU21D;53920;51.094;5.902;2023-08-30T06:30:25;17.46;68.92
67005;HTU21D;53920;51.094;5.902;2023-08-30T06:32:51;17.53;68.78
67005;HTU21D;53920;51.094;5.902;2023-08-30T06:35:17;17.52;68.81
67005;HTU21D;53920;51.094;5.902;2023-08-30T06:37:43;17.63;68.26
67005;HTU21D;53920;51.094;5.902;2023-08-30T06:40:09;17.69;67.94
67005;HTU21D;53920;51.094;5.902;2023-08-30T06:42:35;17.72;67.73
67005;HTU21D;53920;51.094;5.902;2023-08-30T06:45:02;17.80;67.52
67005;HTU21D;53920;51.094;5.902;2023-08-30T06:47:29;17.78;67.53
67005;HTU21D;53920;51.094;5.902;2023-08-30T06:49:54;17.77;67.29
67005;HTU21D;53920;51.094;5.902;2023-08-30T06:52:20;17.82;67.03
67005;HTU21D;53920;51.094;5.902;2023-08-30T06:54:46;17.90;66.68
67005;HTU21D;53920;51.094;5.902;2023-08-30T06:57:12;17.90;66.35
67005;HTU21D;53920;51.094;5.902;2023-08-30T06:59:38;17.97;65.91
67005;HTU21D;53920;51.094;5.902;2023-08-30T07:02:04;18.00;65.68
67005;HTU21D;53920;51.094;5.902;2023-08-30T07:04:31;18.15;64.88
67005;HTU21D;53920;51.094;5.902;2023-08-30T07:06:57;18.28;63.97
67005;HTU21D;53920;51.094;5.902;2023-08-30T07:09:23;18.44;63.69
67005;HTU21D;53920;51.094;5.902;2023-08-30T07:11:55;18.70;62.70
67005;HTU21D;53920;51.094;5.902;2023-08-30T07:14:21;18.69;62.60
67005;HTU21D;53920;51.094;5.902;2023-08-30T07:16:46;18.59;62.58
67005;HTU21D;53920;51.094;5.902;2023-08-30T07:19:15;18.54;62.33
67005;HTU21D;53920;51.094;5.902;2023-08-30T07:21:44;18.35;62.95
67005;HTU21D;53920;51.094;5.902;2023-08-30T07:24:11;18.24;63.30
67005;HTU21D;53920;51.094;5.902;2023-08-30T07:26:37;18.24;63.30
67005;HTU21D;53920;51.094;5.902;2023-08-30T07:29:04;18.34;62.84
67005;HTU21D;53920;51.094;5.902;2023-08-30T07:31:33;18.54;62.34
67005;HTU21D;53920;51.094;5.902;2023-08-30T07:33:59;18.81;61.66
67005;HTU21D;53920;51.094;5.902;2023-08-30T07:36:29;19.09;61.15
67005;HTU21D;53920;51.094;5.902;2023-08-30T07:38:55;19.05;60.96
67005;HTU21D;53920;51.094;5.902;2023-08-30T07:41:21;19.14;60.51
67005;HTU21D;53920;51.094;5.902;2023-08-30T07:43:47;19.10;60.39
67005;HTU21D;53920;51.094;5.902;2023-08-30T07:46:12;18.86;60.84
67005;HTU21D;53920;51.094;5.902;2023-08-30T07:48:38;18.83;60.96
67005;HTU21D;53920;51.094;5.902;2023-08-30T07:51:04;18.71;61.31
67005;HTU21D;53920;51.094;5.902;2023-08-30T07:53:30;18.43;61.57
67005;HTU21D;53920;51.094;5.902;2023-08-30T07:55:56;18.27;61.71
67005;HTU21D;53920;51.094;5.902;2023-08-30T07:58:22;18.13;62.08
67005;HTU21D;53920;51.094;5.902;2023-08-30T08:00:52;18.08;62.42
67005;HTU21D;53920;51.094;5.902;2023-08-30T08:03:20;17.87;62.82
67005;HTU21D;53920;51.094;5.902;2023-08-30T08:05:46;17.92;62.69
67005;HTU21D;53920;51.094;5.902;2023-08-30T08:08:12;18.02;62.53
67005;HTU21D;53920;51.094;5.902;2023-08-30T08:10:38;18.04;62.76
67005;HTU21D;53920;51.094;5.902;2023-08-30T08:13:04;18.02;62.60
67005;HTU21D;53920;51.094;5.902;2023-08-30T08:15:30;17.91;62.81
67005;HTU21D;53920;51.094;5.902;2023-08-30T08:18:00;17.67;63.18
67005;HTU21D;53920;51.094;5.902;2023-08-30T08:20:26;17.77;63.14
67005;HTU21D;53920;51.094;5.902;2023-08-30T08:22:52;17.96;62.79
67005;HTU21D;53920;51.094;5.902;2023-08-30T08:25:18;18.20;62.38
67005;HTU21D;53920;51.094;5.902;2023-08-30T08:27:44;18.09;62.55
67005;HTU21D;53920;51.094;5.902;2023-08-30T08:30:10;18.21;62.55
67005;HTU21D;53920;51.094;5.902;2023-08-30T08:32:36;18.36;62.45
67005;HTU21D;53920;51.094;5.902;2023-08-30T08:35:02;18.23;63.40
67005;HTU21D;53920;51.094;5.902;2023-08-30T08:37:28;18.05;64.06
67005;HTU21D;53920;51.094;5.902;2023-08-30T08:39:54;17.91;64.18
67005;HTU21D;53920;51.094;5.902;2023-08-30T08:42:20;17.81;64.14
67005;HTU21D;53920;51.094;5.902;2023-08-30T08:44:50;17.99;63.78
67005;HTU21D;53920;51.094;5.902;2023-08-30T08:47:17;17.94;63.94
67005;HTU21D;53920;51.094;5.902;2023-08-30T08:49:44;17.83;64.58
67005;HTU21D;53920;51.094;5.902;2023-08-30T08:52:11;17.47;66.07
67005;HTU21D;53920;51.094;5.902;2023-08-30T08:54:39;17.33;66.72
67005;HTU21D;53920;51.094;5.902;2023-08-30T08:57:08;17.24;66.88
67005;HTU21D;53920;51.094;5.902;2023-08-30T08:59:34;17.25;66.83
67005;HTU21D;53920;51.094;5.902;2023-08-30T09:02:01;17.31;66.85
67005;HTU21D;53920;51.094;5.902;2023-08-30T09:04:30;17.14;67.98
67005;HTU21D;53920;51.094;5.902;2023-08-30T09:06:58;16.94;69.10
67005;HTU21D;53920;51.094;5.902;2023-08-30T09:09:25;16.85;70.39
67005;HTU21D;53920;51.094;5.902;2023-08-30T09:11:52;16.61;72.26
67005;HTU21D;53920;51.094;5.902;2023-08-30T09:14:19;16.26;73.99
67005;HTU21D;53920;51.094;5.902;2023-08-30T09:17:02;16.07;75.41
67005;HTU21D;53920;51.094;5.902;2023-08-30T09:19:28;15.88;76.44
67005;HTU21D;53920;51.094;5.902;2023-08-30T09:21:57;15.74;77.47
67005;HTU21D;53920;51.094;5.902;2023-08-30T09:24:24;15.71;78.30
67005;HTU21D;53920;51.094;5.902;2023-08-30T09:26:53;15.68;78.78
67005;HTU21D;53920;51.094;5.902;2023-08-30T09:29:21;15.73;79.49
67005;HTU21D;53920;51.094;5.902;2023-08-30T09:31:53;15.77;79.66
67005;HTU21D;53920;51.094;5.902;2023-08-30T09:34:22;15.81;79.97
67005;HTU21D;53920;51.094;5.902;2023-08-30T09:36:49;15.73;80.41
67005;HTU21D;53920;51.094;5.902;2023-08-30T09:39:15;15.77;80.43
67005;HTU21D;53920;51.094;5.902;2023-08-30T09:41:46;15.87;80.70
67005;HTU21D;53920;51.094;5.902;2023-08-30T09:44:12;15.77;81.08
67005;HTU21D;53920;51.094;5.902;2023-08-30T09:46:48;15.72;81.10
67005;HTU21D;53920;51.094;5.902;2023-08-30T09:49:15;15.65;81.52
67005;HTU21D;53920;51.094;5.902;2023-08-30T09:51:46;15.53;81.91
67005;HTU21D;53920;51.094;5.902;2023-08-30T09:54:18;15.62;81.70
67005;HTU21D;53920;51.094;5.902;2023-08-30T09:56:45;15.63;82.13
67005;HTU21D;53920;51.094;5.902;2023-08-30T09:59:13;15.72;81.93
67005;HTU21D;53920;51.094;5.902;2023-08-30T10:01:41;15.70;82.10
67005;HTU21D;53920;51.094;5.902;2023-08-30T10:04:08;15.62;82.46
67005;HTU21D;53920;51.094;5.902;2023-08-30T10:06:36;15.69;82.32
67005;HTU21D;53920;51.094;5.902;2023-08-30T10:09:04;15.76;82.42
67005;HTU21D;53920;51.094;5.902;2023-08-30T10:11:37;15.88;82.29
67005;HTU21D;53920;51.094;5.902;2023-08-30T10:14:05;16.02;82.00
67005;HTU21D;53920;51.094;5.902;2023-08-30T10:16:40;15.74;82.78
67005;HTU21D;53920;51.094;5.902;2023-08-30T10:19:17;15.69;82.90
67005;HTU21D;53920;51.094;5.902;2023-08-30T10:21:45;15.75;82.62
67005;HTU21D;53920;51.094;5.902;2023-08-30T10:24:18;15.93;82.46
67005;HTU21D;53920;51.094;5.902;2023-08-30T10:26:46;16.17;82.20
67005;HTU21D;53920;51.094;5.902;2023-08-30T10:29:16;16.26;82.01
67005;HTU21D;53920;51.094;5.902;2023-08-30T10:31:43;16.21;82.17
67005;HTU21D;53920;51.094;5.902;2023-08-30T10:34:17;16.16;82.39
67005;HTU21D;53920;51.094;5.902;2023-08-30T10:36:44;16.11;82.63
67005;HTU21D;53920;51.094;5.902;2023-08-30T10:39:14;16.00;82.97
67005;HTU21D;53920;51.094;5.902;2023-08-30T10:41:57;15.96;82.92
67005;HTU21D;53920;51.094;5.902;2023-08-30T10:44:24;16.07;82.62
67005;HTU21D;53920;51.094;5.902;2023-08-30T10:46:54;16.03;82.75
67005;HTU21D;53920;51.094;5.902;2023-08-30T10:49:20;16.03;82.80
67005;HTU21D;53920;51.094;5.902;2023-08-30T10:51:55;16.03;82.65
67005;HTU21D;53920;51.094;5.902;2023-08-30T10:54:23;16.00;82.87
67005;HTU21D;53920;51.094;5.902;2023-08-30T10:56:57;16.12;82.34
67005;HTU21D;53920;51.094;5.902;2023-08-30T10:59:26;16.22;81.94
67005;HTU21D;53920;51.094;5.902;2023-08-30T11:01:53;16.25;81.91
67005;HTU21D;53920;51.094;5.902;2023-08-30T11:04:22;16.17;81.88
67005;HTU21D;53920;51.094;5.902;2023-08-30T11:06:50;16.33;81.67
67005;HTU21D;53920;51.094;5.902;2023-08-30T11:09:20;16.45;81.61
67005;HTU21D;53920;51.094;5.902;2023-08-30T11:11:47;16.48;81.49
67005;HTU21D;53920;51.094;5.902;2023-08-30T11:14:15;16.41;81.81
67005;HTU21D;53920;51.094;5.902;2023-08-30T11:16:41;16.39;82.01
67005;HTU21D;53920;51.094;5.902;2023-08-30T11:19:09;16.43;81.83
67005;HTU21D;53920;51.094;5.902;2023-08-30T11:21:41;16.34;82.16
67005;HTU21D;53920;51.094;5.902;2023-08-30T11:24:08;16.26;82.43
67005;HTU21D;53920;51.094;5.902;2023-08-30T11:26:34;16.25;82.40
67005;HTU21D;53920;51.094;5.902;2023-08-30T11:29:09;16.27;82.29
67005;HTU21D;53920;51.094;5.902;2023-08-30T11:31:35;16.30;82.33
67005;HTU21D;53920;51.094;5.902;2023-08-30T11:34:02;16.31;82.35
67005;HTU21D;53920;51.094;5.902;2023-08-30T11:36:30;16.29;82.63
67005;HTU21D;53920;51.094;5.902;2023-08-30T11:38:57;16.27;82.76
67005;HTU21D;53920;51.094;5.902;2023-08-30T11:41:23;16.34;82.97
67005;HTU21D;53920;51.094;5.902;2023-08-30T11:43:51;16.50;82.92
67005;HTU21D;53920;51.094;5.902;2023-08-30T11:46:19;16.55;82.96
67005;HTU21D;53920;51.094;5.902;2023-08-30T11:48:47;16.57;83.02
67005;HTU21D;53920;51.094;5.902;2023-08-30T11:51:14;16.66;83.00
67005;HTU21D;53920;51.094;5.902;2023-08-30T11:53:41;16.64;83.07
67005;HTU21D;53920;51.094;5.902;2023-08-30T11:56:08;16.69;83.12
67005;HTU21D;53920;51.094;5.902;2023-08-30T11:58:35;16.76;82.87
67005;HTU21D;53920;51.094;5.902;2023-08-30T12:01:04;16.82;82.94
67005;HTU21D;53920;51.094;5.902;2023-08-30T12:03:31;16.90;82.68
67005;HTU21D;53920;51.094;5.902;2023-08-30T12:05:58;16.96;82.64
67005;HTU21D;53920;51.094;5.902;2023-08-30T12:08:26;17.01;82.67
67005;HTU21D;53920;51.094;5.902;2023-08-30T12:10:53;16.91;82.57
67005;HTU21D;53920;51.094;5.902;2023-08-30T12:13:30;17.06;82.67
67005;HTU21D;53920;51.094;5.902;2023-08-30T12:15:58;17.29;82.42
67005;HTU21D;53920;51.094;5.902;2023-08-30T12:18:25;17.43;82.61
67005;HTU21D;53920;51.094;5.902;2023-08-30T12:20:56;17.47;82.29
67005;HTU21D;53920;51.094;5.902;2023-08-30T12:23:23;17.37;82.40
67005;HTU21D;53920;51.094;5.902;2023-08-30T12:26:08;17.46;82.07
67005;HTU21D;53920;51.094;5.902;2023-08-30T12:28:37;17.37;82.58
67005;HTU21D;53920;51.094;5.902;2023-08-30T12:31:04;17.31;82.39
67005;HTU21D;53920;51.094;5.902;2023-08-30T12:33:30;17.28;82.66
67005;HTU21D;53920;51.094;5.902;2023-08-30T12:35:57;17.33;82.49
67005;HTU21D;53920;51.094;5.902;2023-08-30T12:38:24;17.28;82.34
67005;HTU21D;53920;51.094;5.902;2023-08-30T12:40:52;17.33;82.01
67005;HTU21D;53920;51.094;5.902;2023-08-30T12:43:19;17.40;81.89
67005;HTU21D;53920;51.094;5.902;2023-08-30T12:45:46;17.37;81.97
67005;HTU21D;53920;51.094;5.902;2023-08-30T12:48:14;17.35;81.73
67005;HTU21D;53920;51.094;5.902;2023-08-30T12:50:43;17.40;81.69
67005;HTU21D;53920;51.094;5.902;2023-08-30T12:53:09;17.49;81.68
67005;HTU21D;53920;51.094;5.902;2023-08-30T12:55:35;17.54;81.52
67005;HTU21D;53920;51.094;5.902;2023-08-30T12:58:02;17.67;81.43
67005;HTU21D;53920;51.094;5.902;2023-08-30T13:00:28;17.61;81.20
67005;HTU21D;53920;51.094;5.902;2023-08-30T13:02:54;17.53;81.19
67005;HTU21D;53920;51.094;5.902;2023-08-30T13:05:20;17.51;81.15
67005;HTU21D;53920;51.094;5.902;2023-08-30T13:07:49;17.45;81.11
67005;HTU21D;53920;51.094;5.902;2023-08-30T13:10:15;17.45;80.99
67005;HTU21D;53920;51.094;5.902;2023-08-30T13:12:42;17.34;81.30
67005;HTU21D;53920;51.094;5.902;2023-08-30T13:15:09;17.38;80.97
67005;HTU21D;53920;51.094;5.902;2023-08-30T13:17:35;17.26;81.10
67005;HTU21D;53920;51.094;5.902;2023-08-30T13:20:02;17.03;81.73
67005;HTU21D;53920;51.094;5.902;2023-08-30T13:22:29;17.04;81.87
67005;HTU21D;53920;51.094;5.902;2023-08-30T13:24:54;17.06;82.04
67005;HTU21D;53920;51.094;5.902;2023-08-30T13:27:20;17.09;81.88
67005;HTU21D;53920;51.094;5.902;2023-08-30T13:29:47;17.05;81.78
67005;HTU21D;53920;51.094;5.902;2023-08-30T13:32:13;17.10;81.93
67005;HTU21D;53920;51.094;5.902;2023-08-30T13:34:40;17.10;81.89
67005;HTU21D;53920;51.094;5.902;2023-08-30T13:37:06;16.99;82.04
67005;HTU21D;53920;51.094;5.902;2023-08-30T13:39:32;17.00;81.94
67005;HTU21D;53920;51.094;5.902;2023-08-30T13:41:58;16.99;81.91
67005;HTU21D;53920;51.094;5.902;2023-08-30T13:44:24;16.98;82.10
67005;HTU21D;53920;51.094;5.902;2023-08-30T13:46:50;16.96;82.12
67005;HTU21D;53920;51.094;5.902;2023-08-30T13:49:16;17.02;82.06
67005;HTU21D;53920;51.094;5.902;2023-08-30T13:51:46;17.07;82.04
67005;HTU21D;53920;51.094;5.902;2023-08-30T13:54:12;16.96;82.36
67005;HTU21D;53920;51.094;5.902;2023-08-30T13:56:38;16.90;82.42
67005;HTU21D;53920;51.094;5.902;2023-08-30T13:59:04;16.94;82.29
67005;HTU21D;53920;51.094;5.902;2023-08-30T14:01:32;16.94;82.33
67005;HTU21D;53920;51.094;5.902;2023-08-30T14:03:58;16.96;82.26
67005;HTU21D;53920;51.094;5.902;2023-08-30T14:06:24;17.10;82.32
67005;HTU21D;53920;51.094;5.902;2023-08-30T14:08:49;17.80;82.17
67005;HTU21D;53920;51.094;5.902;2023-08-30T14:11:16;18.34;81.15
67005;HTU21D;53920;51.094;5.902;2023-08-30T14:13:42;18.55;79.82
67005;HTU21D;53920;51.094;5.902;2023-08-30T14:16:07;18.59;79.42
67005;HTU21D;53920;51.094;5.902;2023-08-30T14:18:36;18.58;78.46
67005;HTU21D;53920;51.094;5.902;2023-08-30T14:21:02;18.64;77.94
67005;HTU21D;53920;51.094;5.902;2023-08-30T14:23:29;18.98;77.08
67005;HTU21D;53920;51.094;5.902;2023-08-30T14:26:04;19.33;76.11
67005;HTU21D;53920;51.094;5.902;2023-08-30T14:28:39;19.77;74.44
67005;HTU21D;53920;51.094;5.902;2023-08-30T14:31:09;20.28;72.84
67005;HTU21D;53920;51.094;5.902;2023-08-30T14:33:36;20.59;71.84
67005;HTU21D;53920;51.094;5.902;2023-08-30T14:36:05;20.71;70.91
67005;HTU21D;53920;51.094;5.902;2023-08-30T14:38:34;20.73;69.92
67005;HTU21D;53920;51.094;5.902;2023-08-30T14:41:02;20.86;69.28
67005;HTU21D;53920;51.094;5.902;2023-08-30T14:43:28;21.01;68.59
67005;HTU21D;53920;51.094;5.902;2023-08-30T14:46:05;21.05;67.73
67005;HTU21D;53920;51.094;5.902;2023-08-30T14:48:32;21.07;67.22
67005;HTU21D;53920;51.094;5.902;2023-08-30T14:50:59;21.19;66.23
67005;HTU21D;53920;51.094;5.902;2023-08-30T14:53:25;21.42;65.62
67005;HTU21D;53920;51.094;5.902;2023-08-30T14:55:54;21.75;65.27
67005;HTU21D;53920;51.094;5.902;2023-08-30T14:58:23;21.94;64.34
67005;HTU21D;53920;51.094;5.902;2023-08-30T15:00:50;21.92;63.57
67005;HTU21D;53920;51.094;5.902;2023-08-30T15:03:16;21.49;64.40
67005;HTU21D;53920;51.094;5.902;2023-08-30T15:05:42;20.98;64.51
67005;HTU21D;53920;51.094;5.902;2023-08-30T15:08:08;20.56;65.07
67005;HTU21D;53920;51.094;5.902;2023-08-30T15:10:34;20.15;65.75
67005;HTU21D;53920;51.094;5.902;2023-08-30T15:13:01;19.84;66.09
67005;HTU21D;53920;51.094;5.902;2023-08-30T15:15:27;19.63;66.66
67005;HTU21D;53920;51.094;5.902;2023-08-30T15:17:55;19.65;66.76
67005;HTU21D;53920;51.094;5.902;2023-08-30T15:20:22;19.89;66.66
67005;HTU21D;53920;51.094;5.902;2023-08-30T15:22:47;20.12;66.20